Time;durP1;ratioP1;P1;durP2;ratioP2;P2;SDS_P1;SDS_P2;PMS_P1;PMS_P2;Temp;Humidity;BMP_temperature;BMP_pressure;BME280_temperature;BME280_humidity;BME280_pressure;Samples;Min_cycle;Max_cycle;Signal;HPM_P1;HPM_P2
2023/08/05 00:01:15;;;;;;;16.95;15.32;;;14.00;89.00;;;;;;5010528;28;20212;-91
2023/08/05 00:03:43;;;;;;;16.83;15.15;;;13.90;89.10;;;;;;5012046;28;20653;-92
2023/08/05 00:06:10;;;;;;;17.20;14.98;;;13.90;89.40;;;;;;5010185;28;20205;-91
2023/08/05 00:08:36;;;;;;;15.52;14.23;;;14.00;89.70;;;;;;5009101;28;20177;-91
2023/08/05 00:11:02;;;;;;;15.82;14.27;;;14.00;89.90;;;;;;5009636;28;20244;-91
2023/08/05 00:13:34;;;;;;;16.92;15.20;;;14.10;90.10;;;;;;5007506;28;20200;-92
2023/08/05 00:16:03;;;;;;;17.95;15.52;;;14.10;90.00;;;;;;5007457;28;20219;-92
2023/08/05 00:18:28;;;;;;;21.45;15.57;;;14.20;90.00;;;;;;5005592;28;20232;-92
2023/08/05 00:20:54;;;;;;;18.23;16.17;;;14.20;90.00;;;;;;5005890;28;20205;-92
2023/08/05 00:23:22;;;;;;;20.10;15.15;;;14.20;90.10;;;;;;5006744;28;20209;-92
2023/08/05 00:25:47;;;;;;;22.83;15.15;;;14.20;90.10;;;;;;5005673;28;20204;-92
2023/08/05 00:28:16;;;;;;;16.67;15.13;;;14.20;90.10;;;;;;5008802;28;20177;-92
2023/08/05 00:30:41;;;;;;;18.30;15.40;;;14.20;90.10;;;;;;5005962;28;20182;-91
2023/08/05 00:33:07;;;;;;;18.20;15.68;;;14.20;90.00;;;;;;5003827;28;20201;-91
2023/08/05 00:35:33;;;;;;;22.00;16.05;;;14.20;90.00;;;;;;5008903;28;20243;-91
2023/08/05 00:37:58;;;;;;;18.08;16.40;;;14.10;89.80;;;;;;5007318;28;20208;-91
2023/08/05 00:40:27;;;;;;;17.13;15.93;;;14.00;89.80;;;;;;5009459;28;20229;-91
2023/08/05 00:42:53;;;;;;;18.85;16.55;;;14.00;89.80;;;;;;5010743;28;20181;-92
2023/08/05 00:45:20;;;;;;;17.83;16.10;;;14.00;89.70;;;;;;5008305;28;20208;-92
2023/08/05 00:47:46;;;;;;;17.27;15.77;;;13.90;89.70;;;;;;5007415;28;20174;-91
2023/08/05 00:50:13;;;;;;;19.35;17.50;;;13.80;89.80;;;;;;5007802;28;20559;-92
2023/08/05 00:52:42;;;;;;;21.20;17.10;;;13.80;89.80;;;;;;5008407;28;20177;-91
2023/08/05 00:55:08;;;;;;;24.00;17.02;;;13.80;89.90;;;;;;5007472;28;20263;-92
2023/08/05 00:57:34;;;;;;;18.90;17.30;;;13.90;89.80;;;;;;5006061;28;20652;-91
2023/08/05 00:59:59;;;;;;;19.10;17.35;;;13.90;89.70;;;;;;5004721;28;20184;-92
2023/08/05 01:02:25;;;;;;;19.42;17.73;;;13.80;89.70;;;;;;5005197;28;20554;-91
2023/08/05 01:04:50;;;;;;;19.75;17.85;;;13.80;89.80;;;;;;5008067;28;20673;-91
2023/08/05 01:07:20;;;;;;;19.15;17.30;;;13.80;90.00;;;;;;5005766;28;20637;-91
2023/08/05 01:09:46;;;;;;;19.77;17.67;;;13.90;90.10;;;;;;5006634;28;20197;-92
2023/08/05 01:12:11;;;;;;;19.60;17.77;;;13.90;90.20;;;;;;5007673;28;20207;-92
2023/08/05 01:14:37;;;;;;;19.10;17.33;;;13.80;90.30;;;;;;5006011;28;20197;-91
2023/08/05 01:17:03;;;;;;;20.60;17.20;;;13.90;90.50;;;;;;5001903;28;20182;-92
2023/08/05 01:19:31;;;;;;;17.67;15.80;;;13.90;90.80;;;;;;5002288;28;20653;-91
2023/08/05 01:22:08;;;;;;;18.30;16.45;;;13.80;91.10;;;;;;5004943;28;20213;-92
2023/08/05 01:24:59;;;;;;;21.70;16.63;;;13.90;91.30;;;;;;5006764;28;20199;-91
2023/08/05 01:27:27;;;;;;;17.38;15.90;;;13.90;91.50;;;;;;5008930;28;20173;-91
2023/08/05 01:29:53;;;;;;;17.00;15.67;;;13.90;91.60;;;;;;5006597;28;20267;-92
2023/08/05 01:32:19;;;;;;;17.05;15.43;;;14.00;91.70;;;;;;5006117;28;20235;-91
2023/08/05 01:34:49;;;;;;;20.70;16.27;;;13.90;91.70;;;;;;5005975;28;20677;-92
2023/08/05 01:37:15;;;;;;;19.00;16.70;;;14.00;91.70;;;;;;5004406;28;20181;-91
2023/08/05 01:39:43;;;;;;;18.40;16.52;;;14.10;91.80;;;;;;5006629;28;20221;-91
2023/08/05 01:42:09;;;;;;;21.55;17.35;;;14.10;91.90;;;;;;5005798;28;20201;-92
2023/08/05 01:44:35;;;;;;;18.80;16.60;;;14.20;91.90;;;;;;5003701;28;20224;-91
2023/08/05 01:47:01;;;;;;;19.13;16.95;;;14.10;92.00;;;;;;5002979;28;20638;-91
2023/08/05 01:49:26;;;;;;;20.90;16.80;;;14.10;92.10;;;;;;5003330;28;20181;-92
2023/08/05 01:51:52;;;;;;;21.50;16.70;;;14.10;92.20;;;;;;5002139;28;20197;-92
2023/08/05 01:54:17;;;;;;;18.20;16.38;;;14.10;92.20;;;;;;5004449;28;20344;-92
2023/08/05 01:56:43;;;;;;;20.23;16.97;;;14.00;92.20;;;;;;5002590;28;20272;-92
2023/08/05 01:59:09;;;;;;;18.60;15.87;;;14.00;92.30;;;;;;5003136;28;20181;-92
2023/08/05 02:01:44;;;;;;;18.63;15.47;;;13.90;92.30;;;;;;5002819;28;20201;-92
2023/08/05 02:04:10;;;;;;;23.77;16.20;;;13.90;92.20;;;;;;5002804;28;20676;-91
2023/08/05 02:06:38;;;;;;;23.47;16.07;;;13.80;92.20;;;;;;5003985;28;20184;-91
2023/08/05 02:09:04;;;;;;;16.33;14.77;;;13.80;92.20;;;;;;5003591;28;20644;-91
2023/08/05 02:11:33;;;;;;;16.25;14.85;;;13.80;92.20;;;;;;5004080;28;20206;-92
2023/08/05 02:13:59;;;;;;;17.17;15.57;;;13.80;92.30;;;;;;5005573;28;20629;-91
2023/08/05 02:16:25;;;;;;;16.67;15.15;;;13.90;92.30;;;;;;5003577;28;20192;-92
2023/08/05 02:18:51;;;;;;;20.80;15.70;;;13.90;92.10;;;;;;5003024;28;20201;-91
2023/08/05 02:21:17;;;;;;;18.60;16.40;;;13.90;92.10;;;;;;5003252;28;20255;-92
2023/08/05 02:23:42;;;;;;;17.40;15.70;;;13.80;91.90;;;;;;5005031;28;20174;-92
2023/08/05 02:26:08;;;;;;;18.15;16.70;;;13.80;91.90;;;;;;5004156;28;20555;-91
2023/08/05 02:28:33;;;;;;;23.90;17.70;;;13.70;92.00;;;;;;5002222;28;20184;-92
2023/08/05 02:31:02;;;;;;;19.17;17.23;;;13.60;92.00;;;;;;5003729;28;20177;-90
2023/08/05 02:33:28;;;;;;;19.77;17.85;;;13.70;92.20;;;;;;5002823;28;20201;-93
2023/08/05 02:36:01;;;;;;;19.13;17.38;;;13.70;92.30;;;;;;5003678;28;20236;-93
2023/08/05 02:38:27;;;;;;;18.33;16.63;;;13.60;92.30;;;;;;5002996;28;20193;-93
2023/08/05 02:40:53;;;;;;;18.67;16.97;;;13.60;92.50;;;;;;5003438;28;20205;-93
2023/08/05 02:43:18;;;;;;;20.00;17.60;;;13.60;92.70;;;;;;5003838;28;20185;-93
2023/08/05 02:45:44;;;;;;;20.07;16.40;;;13.60;92.80;;;;;;5002155;28;20201;-93
2023/08/05 02:48:10;;;;;;;18.10;16.33;;;13.60;92.90;;;;;;5002733;28;20173;-93
2023/08/05 02:50:35;;;;;;;18.88;16.98;;;13.60;92.90;;;;;;5001546;28;20676;-93
2023/08/05 02:53:01;;;;;;;18.23;16.15;;;13.60;93.00;;;;;;5002218;28;20185;-93
2023/08/05 02:55:27;;;;;;;20.67;17.85;;;13.60;93.00;;;;;;5000783;28;20737;-92
2023/08/05 02:57:55;;;;;;;20.70;16.90;;;13.60;93.00;;;;;;5000836;28;20570;-92
2023/08/05 03:00:21;;;;;;;25.93;17.40;;;13.60;93.10;;;;;;5002017;28;20209;-93
2023/08/05 03:02:47;;;;;;;19.37;17.43;;;13.60;93.20;;;;;;5002149;28;20201;-93
2023/08/05 03:05:13;;;;;;;18.93;16.00;;;13.80;93.20;;;;;;5001090;28;20201;-93
2023/08/05 03:07:39;;;;;;;23.00;16.50;;;13.80;93.20;;;;;;5000668;28;20177;-93
2023/08/05 03:10:05;;;;;;;18.87;17.10;;;13.80;93.20;;;;;;5001233;28;20278;-92
2023/08/05 03:12:31;;;;;;;33.30;18.93;;;13.80;93.30;;;;;;5001323;28;20185;-92
2023/08/05 03:14:56;;;;;;;20.20;17.37;;;13.80;93.30;;;;;;5001469;28;20208;-92
2023/08/05 03:17:22;;;;;;;20.53;17.53;;;13.90;93.30;;;;;;5001594;28;20177;-93
2023/08/05 03:19:52;;;;;;;29.63;27.10;;;14.00;93.20;;;;;;5000572;28;20173;-92
2023/08/05 03:22:20;;;;;;;32.13;29.47;;;14.00;93.20;;;;;;5004047;28;20181;-93
2023/08/05 03:24:46;;;;;;;29.63;26.77;;;14.00;93.20;;;;;;5003690;28;20201;-93
2023/08/05 03:27:11;;;;;;;20.10;17.83;;;14.10;93.10;;;;;;5004164;28;20173;-93
2023/08/05 03:29:37;;;;;;;20.15;17.60;;;14.10;93.00;;;;;;5004181;28;20629;-92
2023/08/05 03:32:03;;;;;;;30.35;27.58;;;14.10;92.90;;;;;;5004002;28;20207;-92
2023/08/05 03:34:29;;;;;;;32.47;29.42;;;14.10;92.90;;;;;;5003297;28;20556;-92
2023/08/05 03:36:55;;;;;;;30.10;22.50;;;14.20;92.90;;;;;;5003328;28;20185;-92
2023/08/05 03:39:21;;;;;;;19.63;17.65;;;14.20;92.90;;;;;;5003079;28;20196;-93
2023/08/05 03:41:47;;;;;;;31.20;18.67;;;14.20;92.90;;;;;;5002469;28;20381;-92
2023/08/05 03:44:12;;;;;;;31.95;29.23;;;14.20;92.90;;;;;;5002946;28;20201;-92
2023/08/05 03:46:38;;;;;;;34.65;31.65;;;14.20;92.90;;;;;;5002403;28;20651;-93
2023/08/05 03:49:04;;;;;;;21.80;19.33;;;14.30;92.90;;;;;;5002824;28;20181;-93
2023/08/05 03:51:33;;;;;;;23.45;19.45;;;14.30;92.90;;;;;;5004642;28;20192;-93
2023/08/05 03:53:59;;;;;;;22.38;20.00;;;14.30;92.90;;;;;;5005324;28;20209;-92
2023/08/05 03:56:30;;;;;;;22.70;20.88;;;14.30;92.90;;;;;;5002825;28;20182;-92
2023/08/05 03:58:56;;;;;;;22.05;19.83;;;14.30;92.90;;;;;;5001743;28;20203;-93
2023/08/05 04:01:26;;;;;;;23.75;21.20;;;14.30;92.90;;;;;;5000977;28;20292;-93
2023/08/05 04:03:52;;;;;;;22.10;20.00;;;14.20;92.90;;;;;;5000505;28;20189;-92
2023/08/05 04:06:21;;;;;;;21.80;19.55;;;14.20;92.90;;;;;;5000110;28;20233;-92
2023/08/05 04:08:53;;;;;;;22.85;20.48;;;14.10;92.90;;;;;;5003056;28;20193;-93
2023/08/05 04:11:20;;;;;;;22.35;20.17;;;14.10;92.90;;;;;;5006555;28;20581;-93
2023/08/05 04:13:45;;;;;;;24.17;21.38;;;14.10;92.80;;;;;;5005779;28;20219;-92
2023/08/05 04:16:16;;;;;;;24.10;21.98;;;14.00;92.80;;;;;;5007838;28;20177;-92
2023/08/05 04:18:48;;;;;;;23.02;20.75;;;14.10;92.80;;;;;;5006831;28;20201;-92
2023/08/05 04:21:17;;;;;;;23.42;20.98;;;14.20;92.80;;;;;;5006558;28;20217;-93
2023/08/05 04:23:42;;;;;;;23.70;21.33;;;14.20;92.80;;;;;;5007903;28;20169;-92
2023/08/05 04:26:13;;;;;;;23.48;21.45;;;14.30;92.80;;;;;;5003969;28;20223;-92
2023/08/05 04:28:38;;;;;;;22.30;20.45;;;14.20;92.70;;;;;;5005244;28;20208;-92
2023/08/05 04:31:04;;;;;;;22.30;20.27;;;14.20;92.50;;;;;;5006493;28;20223;-93
2023/08/05 04:33:32;;;;;;;23.52;21.52;;;14.20;92.50;;;;;;5006245;28;20220;-92
2023/08/05 04:36:00;;;;;;;23.98;21.70;;;14.10;92.40;;;;;;5004847;28;20181;-92
2023/08/05 04:38:26;;;;;;;23.98;21.63;;;14.10;92.40;;;;;;5004726;28;20185;-92
2023/08/05 04:40:52;;;;;;;26.10;23.33;;;14.10;92.40;;;;;;5006474;28;20201;-92
2023/08/05 04:43:24;;;;;;;26.23;23.70;;;14.20;92.40;;;;;;5006098;28;20170;-92
2023/08/05 04:45:54;;;;;;;25.73;23.17;;;14.20;92.40;;;;;;5005179;28;20189;-92
2023/08/05 04:48:19;;;;;;;25.52;23.50;;;14.20;92.40;;;;;;5005808;28;20165;-92
2023/08/05 04:50:45;;;;;;;25.45;23.35;;;14.30;92.40;;;;;;5004629;28;20188;-93
2023/08/05 04:53:15;;;;;;;25.02;22.63;;;14.30;92.30;;;;;;5004684;28;20257;-92
2023/08/05 04:55:44;;;;;;;24.80;22.55;;;14.20;92.20;;;;;;5005236;28;20669;-92
2023/08/05 04:58:11;;;;;;;24.80;22.60;;;14.20;92.20;;;;;;5005473;28;20181;-92
2023/08/05 05:00:36;;;;;;;;;;;14.20;92.20;;;;;;5004447;28;20193;-91
2023/08/05 05:03:02;;;;;;;24.42;22.52;;;14.20;92.20;;;;;;5005358;28;20058;-92
2023/08/05 05:05:27;;;;;;;26.30;24.15;;;14.30;92.20;;;;;;5005763;28;20205;-92
2023/08/05 05:07:56;;;;;;;27.92;25.58;;;14.30;92.10;;;;;;5005681;28;20169;-92
2023/08/05 05:10:22;;;;;;;;;;;14.30;92.20;;;;;;5005338;28;20275;-92
2023/08/05 05:12:48;;;;;;;27.42;25.00;;;14.30;92.10;;;;;;5003969;28;20220;-92
2023/08/05 05:15:24;;;;;;;29.00;26.75;;;14.30;92.10;;;;;;5005152;28;20281;-92
2023/08/05 05:17:50;;;;;;;29.75;27.25;;;14.30;92.20;;;;;;5005842;28;20173;-92
2023/08/05 05:20:25;;;;;;;30.58;28.08;;;14.40;92.20;;;;;;5005086;28;20201;-92
2023/08/05 05:22:57;;;;;;;29.10;26.88;;;14.50;92.20;;;;;;5005255;28;20165;-92
2023/08/05 05:25:25;;;;;;;28.20;25.55;;;14.50;92.20;;;;;;5005918;28;20204;-91
2023/08/05 05:27:51;;;;;;;27.23;24.55;;;14.50;92.30;;;;;;5006161;28;20537;-92
2023/08/05 05:30:20;;;;;;;27.88;25.40;;;14.50;92.50;;;;;;5006702;28;20189;-92
2023/08/05 05:32:54;;;;;;;27.73;25.67;;;14.50;92.50;;;;;;5005698;28;20193;-92
2023/08/05 05:35:20;;;;;;;28.65;26.08;;;14.60;92.50;;;;;;5005401;28;20196;-92
2023/08/05 05:37:46;;;;;;;27.35;25.25;;;14.70;92.50;;;;;;5004975;28;20267;-92
2023/08/05 05:40:24;;;;;;;29.00;26.80;;;14.70;92.50;;;;;;5004597;28;20729;-93
2023/08/05 05:42:49;;;;;;;28.55;25.60;;;14.80;92.50;;;;;;5004485;28;20170;-92
2023/08/05 05:45:15;;;;;;;27.02;24.70;;;14.80;92.50;;;;;;5004394;28;20256;-92
2023/08/05 05:47:41;;;;;;;29.13;26.60;;;14.80;92.50;;;;;;5003883;28;20177;-92
2023/08/05 05:50:07;;;;;;;29.13;26.65;;;14.80;92.50;;;;;;5003574;28;20568;-92
2023/08/05 05:52:34;;;;;;;30.23;27.38;;;14.80;92.50;;;;;;5003246;28;20169;-92
2023/08/05 05:55:08;;;;;;;28.52;26.13;;;14.80;92.50;;;;;;5003598;28;20197;-92
2023/08/05 05:57:34;;;;;;;28.70;26.27;;;14.90;92.60;;;;;;5003014;28;20556;-92
2023/08/05 06:00:01;;;;;;;30.27;25.05;;;14.90;92.60;;;;;;5001219;28;20182;-91
2023/08/05 06:03:02;;;;;;;26.48;24.20;;;15.00;92.80;;;;;;5001206;28;20173;-92
2023/08/05 06:06:04;;;;;;;25.90;23.73;;;15.10;92.90;;;;;;4942135;29;20622;-92
2023/08/05 06:09:00;;;;;;;24.25;22.25;;;15.20;92.80;;;;;;5002376;28;20169;-92
2023/08/05 06:11:27;;;;;;;25.20;22.92;;;15.20;92.70;;;;;;4990550;28;20480;-92
2023/08/05 06:13:53;;;;;;;25.85;23.15;;;15.20;92.60;;;;;;5003020;28;20693;-92
2023/08/05 06:16:18;;;;;;;25.92;23.52;;;15.20;92.50;;;;;;5003598;28;20181;-92
2023/08/05 06:18:44;;;;;;;27.20;24.48;;;15.20;92.40;;;;;;5003377;28;20196;-92
2023/08/05 06:21:10;;;;;;;28.00;25.55;;;15.30;92.30;;;;;;5001955;28;20205;-92
2023/08/05 06:23:35;;;;;;;26.90;24.50;;;15.30;92.00;;;;;;5004126;28;20269;-93
2023/08/05 06:26:03;;;;;;;26.92;23.83;;;15.40;92.00;;;;;;5002557;28;20299;-93
2023/08/05 06:28:29;;;;;;;24.65;22.70;;;15.40;91.60;;;;;;5003492;28;20177;-93
2023/08/05 06:30:56;;;;;;;23.60;21.90;;;15.50;91.50;;;;;;5001944;28;20189;-93
2023/08/05 06:33:21;;;;;;;33.90;30.90;;;15.60;90.80;;;;;;5001528;28;20586;-93
2023/08/05 06:35:47;;;;;;;35.08;32.50;;;15.50;90.40;;;;;;5001028;28;20205;-92
2023/08/05 06:38:13;;;;;;;36.75;33.78;;;15.60;89.80;;;;;;5002153;28;20212;-92
2023/08/05 06:40:41;;;;;;;22.70;20.65;;;15.80;89.70;;;;;;5000628;28;20207;-92
2023/08/05 06:43:10;;;;;;;22.13;20.02;;;15.80;89.20;;;;;;4997335;28;20668;-92
2023/08/05 06:45:35;;;;;;;34.70;32.03;;;15.90;89.30;;;;;;5008407;28;20583;-91
2023/08/05 06:48:01;;;;;;;34.38;31.92;;;15.90;87.80;;;;;;4998217;28;20201;-92
2023/08/05 06:50:26;;;;;;;30.52;27.50;;;15.90;87.90;;;;;;4997783;28;20208;-91
2023/08/05 06:52:52;;;;;;;22.42;20.35;;;16.10;87.60;;;;;;4997387;28;20181;-91
2023/08/05 06:55:19;;;;;;;22.73;20.50;;;16.20;86.70;;;;;;4998417;28;20197;-91
2023/08/05 06:57:48;;;;;;;35.05;32.03;;;16.20;85.60;;;;;;4997369;28;20184;-89
2023/08/05 07:00:14;;;;;;;35.40;32.40;;;16.30;86.20;;;;;;5017339;28;20178;-91
2023/08/05 07:02:39;;;;;;;23.55;21.25;;;16.40;86.10;;;;;;4998242;28;20154;-91
2023/08/05 07:05:08;;;;;;;24.77;22.02;;;16.50;86.70;;;;;;4998670;28;20685;-91
2023/08/05 07:07:33;;;;;;;25.75;21.90;;;16.70;87.00;;;;;;4998803;28;20216;-91
2023/08/05 07:10:03;;;;;;;23.83;21.50;;;16.60;86.20;;;;;;4998351;28;20212;-92
2023/08/05 07:12:29;;;;;;;22.55;20.48;;;16.70;85.80;;;;;;4998994;28;20176;-92
2023/08/05 07:14:54;;;;;;;23.58;21.23;;;16.70;86.20;;;;;;5000567;28;20197;-92
2023/08/05 07:17:23;;;;;;;20.95;19.10;;;16.70;86.20;;;;;;4998491;28;20181;-91
2023/08/05 07:19:48;;;;;;;21.83;19.90;;;16.70;86.50;;;;;;4997113;28;20264;-91
2023/08/05 07:22:17;;;;;;;21.10;19.20;;;16.80;86.10;;;;;;4997767;28;20292;-91
2023/08/05 07:24:42;;;;;;;25.58;23.33;;;16.80;85.10;;;;;;4998947;28;20198;-91
2023/08/05 07:27:08;;;;;;;25.88;24.10;;;16.80;84.40;;;;;;4998224;28;20645;-91
2023/08/05 07:29:34;;;;;;;25.45;23.45;;;16.90;83.60;;;;;;4998643;28;20645;-91
2023/08/05 07:31:59;;;;;;;26.02;23.60;;;16.90;84.00;;;;;;4998071;28;20203;-91
2023/08/05 07:34:30;;;;;;;25.33;22.88;;;17.00;82.80;;;;;;4997426;28;20197;-91
2023/08/05 07:36:58;;;;;;;25.65;23.73;;;17.00;82.70;;;;;;4997158;28;20231;-90
2023/08/05 07:39:28;;;;;;;26.20;24.10;;;17.00;82.50;;;;;;4998064;28;20177;-90
2023/08/05 07:41:53;;;;;;;26.42;23.92;;;17.00;82.90;;;;;;5002021;28;20200;-92
2023/08/05 07:44:19;;;;;;;25.88;23.95;;;17.10;83.00;;;;;;5001531;28;20204;-91
2023/08/05 07:46:47;;;;;;;26.65;24.67;;;17.10;81.00;;;;;;5001799;28;20181;-91
2023/08/05 07:49:13;;;;;;;26.20;24.40;;;17.30;80.70;;;;;;5001504;28;20196;-91
2023/08/05 07:51:39;;;;;;;27.25;25.08;;;17.30;78.90;;;;;;5000886;28;20164;-90
2023/08/05 07:54:05;;;;;;;28.52;26.23;;;17.40;78.30;;;;;;5000724;28;20201;-91
2023/08/05 07:56:33;;;;;;;27.88;25.77;;;17.40;77.50;;;;;;5001107;28;20276;-91
2023/08/05 07:59:03;;;;;;;29.52;27.17;;;17.50;78.10;;;;;;5005255;28;20213;-91
2023/08/05 08:01:33;;;;;;;27.77;25.88;;;17.50;75.80;;;;;;5010761;28;20703;-92
2023/08/05 08:04:07;;;;;;;28.00;25.85;;;17.50;77.40;;;;;;5013593;28;20223;-92
2023/08/05 08:06:57;;;;;;;28.48;26.42;;;17.40;77.00;;;;;;5018135;28;20190;-92
2023/08/05 08:09:23;;;;;;;27.52;25.55;;;17.40;76.80;;;;;;5010078;28;20190;-92
2023/08/05 08:11:48;;;;;;;27.40;25.23;;;17.40;76.60;;;;;;5021381;28;20204;-91
2023/08/05 08:14:45;;;;;;;27.17;25.00;;;17.40;78.00;;;;;;5009701;28;20256;-92
2023/08/05 08:17:11;;;;;;;29.45;27.10;;;17.60;78.80;;;;;;5003367;28;20177;-91
2023/08/05 08:19:36;;;;;;;27.90;26.00;;;17.80;74.40;;;;;;5005407;28;20607;-91
2023/08/05 08:22:02;;;;;;;28.27;26.20;;;17.80;73.50;;;;;;5004113;28;20205;-91
2023/08/05 08:24:28;;;;;;;27.98;26.08;;;18.00;74.00;;;;;;5005808;28;20224;-92
2023/08/05 08:26:53;;;;;;;29.15;27.05;;;17.80;71.70;;;;;;5006042;28;20178;-91
2023/08/05 08:29:19;;;;;;;27.38;25.52;;;17.80;71.50;;;;;;5004784;28;20173;-90
2023/08/05 08:31:44;;;;;;;29.77;27.27;;;17.80;70.10;;;;;;5004402;28;20204;-92
2023/08/05 08:34:10;;;;;;;30.30;28.13;;;18.00;70.10;;;;;;5005683;28;20201;-91
2023/08/05 08:36:38;;;;;;;35.80;33.08;;;18.20;70.80;;;;;;5008423;28;20188;-92
2023/08/05 08:39:04;;;;;;;38.10;35.55;;;18.20;71.40;;;;;;5007051;28;20185;-91
2023/08/05 08:41:36;;;;;;;29.33;27.20;;;18.20;70.80;;;;;;5005358;28;20580;-89
2023/08/05 08:44:03;;;;;;;29.17;26.98;;;18.10;71.50;;;;;;4998528;28;20681;-89
2023/08/05 08:46:28;;;;;;;28.38;26.40;;;18.00;70.80;;;;;;5015778;28;20574;-89
2023/08/05 08:48:54;;;;;;;28.02;26.00;;;18.00;71.10;;;;;;5015863;28;20175;-89
2023/08/05 08:51:21;;;;;;;28.45;26.20;;;17.90;70.60;;;;;;5015946;28;20205;-89
2023/08/05 08:53:48;;;;;;;30.25;28.15;;;18.00;71.00;;;;;;5015538;28;20261;-89
2023/08/05 08:56:13;;;;;;;27.75;25.75;;;17.80;69.40;;;;;;4997902;28;20661;-89
2023/08/05 08:58:39;;;;;;;28.48;26.27;;;17.70;71.10;;;;;;4998383;28;20208;-89
2023/08/05 09:01:06;;;;;;;28.23;26.02;;;17.70;71.60;;;;;;5015659;28;20240;-89
2023/08/05 09:03:34;;;;;;;27.23;25.33;;;17.70;72.00;;;;;;5015844;28;20176;-89
2023/08/05 09:06:00;;;;;;;28.35;26.20;;;17.90;73.00;;;;;;5015775;28;20174;-89
2023/08/05 09:08:26;;;;;;;27.30;25.10;;;18.00;73.00;;;;;;5015475;28;20177;-89
2023/08/05 09:10:52;;;;;;;27.02;25.23;;;18.00;74.00;;;;;;5015537;28;20253;-89
2023/08/05 09:13:19;;;;;;;26.95;25.00;;;18.00;74.20;;;;;;5015339;28;20257;-89
2023/08/05 09:15:46;;;;;;;27.10;25.10;;;17.80;74.60;;;;;;5015581;28;20648;-89
2023/08/05 09:18:12;;;;;;;26.65;24.73;;;17.80;74.60;;;;;;4998925;28;20185;-89
2023/08/05 09:20:38;;;;;;;27.95;25.55;;;18.00;75.30;;;;;;5015242;28;20197;-88
2023/08/05 09:23:06;;;;;;;27.33;25.00;;;17.90;74.40;;;;;;4998003;28;20173;-89
2023/08/05 09:25:33;;;;;;;26.77;24.60;;;18.10;73.60;;;;;;4997878;28;20564;-88
2023/08/05 09:28:00;;;;;;;26.75;24.88;;;18.20;72.90;;;;;;5015060;28;20711;-88
2023/08/05 09:30:26;;;;;;;27.08;25.08;;;18.20;73.20;;;;;;5015416;28;20185;-89
2023/08/05 09:32:53;;;;;;;26.63;24.73;;;18.20;73.10;;;;;;5015014;28;20189;-89
2023/08/05 09:35:18;;;;;;;27.80;25.73;;;18.50;73.30;;;;;;5014862;28;20193;-89
2023/08/05 09:37:48;;;;;;;25.85;24.00;;;18.80;72.50;;;;;;5014874;28;20173;-89
2023/08/05 09:40:18;;;;;;;26.00;23.75;;;18.90;70.80;;;;;;5015725;28;20161;-89
2023/08/05 09:42:52;;;;;;;32.15;29.50;;;19.00;70.70;;;;;;5014820;28;20166;-89
2023/08/05 09:45:19;;;;;;;27.02;25.10;;;19.20;68.10;;;;;;5014702;28;20203;-88
2023/08/05 09:47:52;;;;;;;25.60;23.80;;;19.50;68.80;;;;;;5015163;28;20170;-89
2023/08/05 09:50:20;;;;;;;26.02;23.88;;;19.40;67.70;;;;;;4997191;28;20188;-88
2023/08/05 09:52:50;;;;;;;26.02;23.98;;;19.20;69.00;;;;;;5014585;28;20166;-88
2023/08/05 09:55:17;;;;;;;26.48;24.45;;;19.20;69.90;;;;;;4997463;28;20288;-88
2023/08/05 09:57:43;;;;;;;27.67;25.52;;;18.90;67.20;;;;;;4997279;28;20649;-89
2023/08/05 10:00:11;;;;;;;26.75;24.52;;;19.10;69.20;;;;;;4997771;28;20177;-88
2023/08/05 10:02:39;;;;;;;26.30;24.20;;;19.30;68.80;;;;;;5014565;28;20170;-88
2023/08/05 10:05:05;;;;;;;26.65;24.33;;;19.20;67.80;;;;;;4996869;28;20190;-88
2023/08/05 10:07:31;;;;;;;27.08;25.08;;;19.10;67.60;;;;;;4997114;28;20178;-89
2023/08/05 10:09:57;;;;;;;26.95;24.80;;;19.10;68.70;;;;;;5014914;28;20660;-88
2023/08/05 10:12:41;;;;;;;27.60;25.50;;;18.90;68.80;;;;;;5014255;28;20176;-88
2023/08/05 10:15:10;;;;;;;28.52;26.35;;;18.90;70.40;;;;;;4996690;28;20201;-89
2023/08/05 10:17:38;;;;;;;30.33;27.27;;;18.90;69.50;;;;;;4997348;28;20183;-89
2023/08/05 10:20:06;;;;;;;26.50;24.20;;;19.10;70.30;;;;;;4996940;28;20185;-89
2023/08/05 10:22:32;;;;;;;28.40;25.88;;;19.50;69.90;;;;;;5014139;28;20581;-89
2023/08/05 10:25:00;;;;;;;27.27;25.08;;;19.70;67.90;;;;;;4996794;28;20212;-89
2023/08/05 10:27:44;;;;;;;27.33;25.33;;;19.90;66.60;;;;;;5014422;28;20170;-89
2023/08/05 10:30:16;;;;;;;28.33;25.83;;;20.20;68.50;;;;;;5014489;28;20201;-89
2023/08/05 10:32:53;;;;;;;27.67;25.70;;;20.40;67.50;;;;;;4996922;28;20193;-89
2023/08/05 10:35:39;;;;;;;27.38;25.38;;;20.30;67.10;;;;;;5014169;28;20212;-89
2023/08/05 10:38:23;;;;;;;28.27;26.27;;;19.90;66.20;;;;;;5014107;28;20157;-89
2023/08/05 10:40:56;;;;;;;26.58;24.42;;;20.20;67.50;;;;;;5014315;28;20197;-89
2023/08/05 10:43:30;;;;;;;28.77;26.67;;;20.40;65.20;;;;;;5014044;28;20211;-89
2023/08/05 10:45:56;;;;;;;28.13;26.10;;;20.10;63.60;;;;;;5014143;28;20671;-89
2023/08/05 10:48:33;;;;;;;27.40;25.42;;;19.70;65.80;;;;;;5014330;28;20646;-89
2023/08/05 10:51:06;;;;;;;25.63;23.73;;;19.70;66.50;;;;;;5014116;28;20157;-89
2023/08/05 10:53:32;;;;;;;25.00;23.25;;;19.80;67.80;;;;;;5014300;28;20185;-89
2023/08/05 10:55:57;;;;;;;23.60;22.00;;;20.30;64.90;;;;;;5013985;28;20220;-89
2023/08/05 10:58:30;;;;;;;25.25;23.05;;;20.50;62.30;;;;;;5014132;28;20667;-89
2023/08/05 11:01:00;;;;;;;24.33;22.30;;;20.40;64.10;;;;;;4996713;28;20192;-89
2023/08/05 11:03:49;;;;;;;23.13;21.50;;;20.70;65.20;;;;;;5013767;28;20276;-90
2023/08/05 11:06:21;;;;;;;24.35;22.30;;;20.90;65.60;;;;;;5013829;28;20245;-90
2023/08/05 11:08:48;;;;;;;24.83;22.92;;;20.90;62.20;;;;;;4996180;28;20170;-90
2023/08/05 11:11:14;;;;;;;22.67;20.95;;;20.80;62.10;;;;;;5013939;28;20252;-90
2023/08/05 11:13:45;;;;;;;23.02;21.13;;;21.00;61.30;;;;;;4996183;28;20264;-90
2023/08/05 11:16:17;;;;;;;22.60;20.90;;;21.20;61.80;;;;;;5013990;28;20201;-90
2023/08/05 11:18:55;;;;;;;20.90;19.40;;;21.20;61.00;;;;;;5001652;28;20181;-90
2023/08/05 11:21:21;;;;;;;21.73;20.23;;;21.10;59.20;;;;;;5002683;28;20204;-90
2023/08/05 11:23:47;;;;;;;22.60;20.77;;;20.80;60.70;;;;;;5002703;28;20177;-90
2023/08/05 11:26:13;;;;;;;20.10;18.80;;;21.00;63.20;;;;;;5020427;28;20668;-89
2023/08/05 11:28:43;;;;;;;21.45;19.63;;;21.60;59.50;;;;;;5020225;28;20173;-90
2023/08/05 11:31:09;;;;;;;21.85;20.25;;;21.60;57.90;;;;;;5020725;28;20228;-90
2023/08/05 11:33:35;;;;;;;27.13;25.13;;;21.60;57.90;;;;;;5002708;28;20740;-90
2023/08/05 11:36:01;;;;;;;26.77;24.95;;;22.00;57.30;;;;;;5020887;28;20212;-90
2023/08/05 11:38:27;;;;;;;28.08;26.08;;;22.20;55.90;;;;;;5020488;28;20681;-90
2023/08/05 11:40:55;;;;;;;22.05;20.27;;;21.80;57.50;;;;;;5020230;28;20677;-90
2023/08/05 11:43:22;;;;;;;20.60;19.30;;;22.20;58.70;;;;;;5020523;28;20173;-90
2023/08/05 11:45:54;;;;;;;21.02;19.63;;;22.00;57.10;;;;;;5020238;28;20246;-90
2023/08/05 11:48:24;;;;;;;19.70;18.10;;;22.60;60.00;;;;;;5002830;28;20173;-90
2023/08/05 11:50:55;;;;;;;20.30;18.85;;;21.90;56.60;;;;;;5020005;28;20606;-90
2023/08/05 11:53:21;;;;;;;19.67;18.42;;;21.70;57.00;;;;;;5020350;28;20294;-90
2023/08/05 11:55:47;;;;;;;19.10;17.70;;;21.40;57.80;;;;;;5020207;28;20317;-90
2023/08/05 11:58:13;;;;;;;19.40;18.10;;;21.70;56.90;;;;;;5002823;28;20595;-90
2023/08/05 12:00:47;;;;;;;19.10;17.80;;;22.00;57.70;;;;;;5002579;28;20212;-90
2023/08/05 12:03:13;;;;;;;17.85;16.65;;;22.50;58.60;;;;;;5020517;28;20523;-90
2023/08/05 12:05:43;;;;;;;19.10;17.80;;;22.00;56.30;;;;;;5002401;28;20677;-90
2023/08/05 12:08:09;;;;;;;18.15;17.00;;;22.40;57.20;;;;;;5020138;28;20169;-90
2023/08/05 12:10:34;;;;;;;18.55;17.35;;;22.00;55.90;;;;;;5020228;28;20311;-90
2023/08/05 12:13:05;;;;;;;19.17;17.70;;;22.20;57.90;;;;;;5020406;28;20657;-90
2023/08/05 12:15:30;;;;;;;19.27;17.70;;;22.30;57.70;;;;;;5020115;28;20185;-90
2023/08/05 12:17:58;;;;;;;18.33;17.13;;;22.40;55.80;;;;;;5002749;28;20185;-90
2023/08/05 12:20:29;;;;;;;18.33;16.88;;;22.00;53.10;;;;;;5020326;28;20180;-89
2023/08/05 12:22:56;;;;;;;18.55;17.13;;;22.20;54.90;;;;;;5020140;28;20169;-90
2023/08/05 12:25:22;;;;;;;18.67;17.38;;;22.30;57.00;;;;;;5019977;28;20251;-90
2023/08/05 12:27:48;;;;;;;19.65;18.33;;;22.70;54.70;;;;;;5020355;28;20174;-90
2023/08/05 12:30:14;;;;;;;19.17;17.85;;;22.80;56.00;;;;;;4998621;28;20292;-90
2023/08/05 12:32:40;;;;;;;18.20;16.88;;;22.70;57.00;;;;;;5017018;28;20200;-90